createdAt,value
2023-03-17T00:00:47.683Z,82.00
2023-03-17T00:03:26.012Z,83.40
2023-03-17T00:05:57.593Z,77.90
2023-03-17T00:08:27.989Z,76.00
2023-03-17T00:10:55.977Z,73.20
2023-03-17T00:13:24.137Z,72.50
2023-03-17T00:16:03.604Z,69.00
2023-03-17T00:18:31.945Z,68.10
2023-03-17T00:20:58.966Z,67.40
2023-03-17T00:23:26.536Z,70.10
2023-03-17T00:25:54.501Z,71.50
2023-03-17T00:28:27.607Z,68.80
2023-03-17T00:31:01.284Z,69.70
2023-03-17T00:33:30.693Z,67.00
2023-03-17T00:35:58.992Z,67.90
2023-03-17T00:38:26.026Z,68.90
2023-03-17T00:40:52.853Z,68.30
2023-03-17T00:43:22.156Z,71.30
2023-03-17T00:45:49.653Z,70.00
2023-03-17T00:48:19.895Z,71.20
2023-03-17T00:50:50.643Z,71.20
2023-03-17T00:53:19.645Z,72.50
2023-03-17T00:55:48.056Z,74.10
2023-03-17T00:58:25.897Z,70.10
2023-03-17T01:00:53.821Z,67.90
2023-03-17T01:03:21.433Z,65.30
2023-03-17T01:05:50.207Z,60.40
2023-03-17T01:08:18.545Z,48.70
2023-03-17T01:10:45.373Z,52.60
2023-03-17T01:13:13.798Z,53.60
2023-03-17T01:15:47.587Z,53.50
2023-03-17T01:18:17.208Z,52.40
2023-03-17T01:23:12.461Z,59.00
2023-03-17T01:25:41.578Z,57.70
2023-03-17T01:28:14.642Z,63.50
2023-03-17T01:30:43.909Z,59.90
2023-03-17T01:33:14.850Z,61.80
2023-03-17T01:35:44.046Z,59.90
2023-03-17T01:38:11.785Z,61.20
2023-03-17T01:40:45.812Z,63.40
2023-03-17T01:43:12.582Z,62.50
2023-03-17T01:46:17.350Z,60.20
2023-03-17T01:49:10.058Z,58.60
2023-03-17T01:51:46.495Z,59.80
2023-03-17T01:54:35.959Z,57.50
2023-03-17T01:57:10.750Z,57.40
2023-03-17T01:59:44.523Z,58.30
2023-03-17T02:02:16.226Z,59.20
2023-03-17T02:04:43.216Z,57.00
2023-03-17T02:07:11.427Z,58.30
2023-03-17T02:09:41.565Z,58.60
2023-03-17T02:12:10.451Z,60.30
2023-03-17T02:14:37.597Z,60.70
2023-03-17T02:17:10.791Z,57.40
2023-03-17T02:19:39.033Z,57.70
2023-03-17T02:22:06.061Z,58.80
2023-03-17T02:24:48.770Z,57.30
2023-03-17T02:27:24.391Z,60.70
2023-03-17T02:29:53.767Z,57.00
2023-03-17T02:32:20.618Z,59.10
2023-03-17T02:34:48.527Z,57.60
2023-03-17T02:37:17.281Z,60.00
2023-03-17T02:39:44.501Z,55.70
2023-03-17T02:42:12.796Z,59.30
2023-03-17T02:44:40.629Z,61.30
2023-03-17T02:47:08.708Z,57.40
2023-03-17T02:49:37.343Z,56.30
2023-03-17T02:52:05.220Z,54.20
2023-03-17T02:54:32.303Z,53.30
2023-03-17T02:56:59.822Z,52.80
2023-03-17T02:59:27.128Z,54.60
2023-03-17T03:01:53.998Z,51.60
2023-03-17T03:04:20.892Z,53.70
2023-03-17T03:06:48.123Z,51.90
2023-03-17T03:09:15.534Z,51.60
2023-03-17T03:11:43.038Z,51.90
2023-03-17T03:14:10.615Z,51.90
2023-03-17T03:16:38.557Z,54.60
2023-03-17T03:19:07.108Z,57.20
2023-03-17T03:21:34.150Z,57.00
2023-03-17T03:24:01.321Z,57.30
2023-03-17T03:26:28.489Z,55.10
2023-03-17T03:28:57.421Z,57.60
2023-03-17T03:31:25.073Z,56.80
2023-03-17T03:33:51.935Z,55.20
2023-03-17T03:36:19.037Z,57.00
2023-03-17T03:38:45.922Z,56.90
2023-03-17T03:41:13.225Z,55.80
2023-03-17T03:43:40.198Z,56.30
2023-03-17T03:46:07.611Z,56.10
2023-03-17T03:48:34.463Z,57.10
2023-03-17T03:51:02.507Z,55.40
2023-03-17T03:53:30.129Z,57.40
2023-03-17T03:55:57.067Z,58.00
2023-03-17T03:58:23.859Z,55.00
2023-03-17T04:00:51.261Z,51.30
2023-03-17T04:03:18.150Z,54.50
2023-03-17T04:05:45.050Z,53.80
2023-03-17T04:08:12.013Z,57.50
2023-03-17T04:10:38.889Z,57.50
2023-03-17T04:13:05.768Z,55.70
2023-03-17T04:15:33.141Z,56.60
2023-03-17T04:17:59.954Z,53.60
2023-03-17T04:20:26.831Z,53.30
2023-03-17T04:22:53.713Z,53.50
2023-03-17T04:25:20.660Z,53.80
2023-03-17T04:27:47.524Z,53.70
2023-03-17T04:30:16.782Z,55.80
2023-03-17T04:32:44.883Z,55.70
2023-03-17T04:35:17.799Z,56.50
2023-03-17T04:37:44.768Z,54.20
2023-03-17T04:40:13.531Z,55.20
2023-03-17T04:42:40.719Z,53.20
2023-03-17T04:45:15.584Z,54.60
2023-03-17T04:47:42.477Z,55.20
2023-03-17T04:50:12.053Z,56.40
2023-03-17T04:52:39.048Z,60.60
2023-03-17T04:55:08.456Z,59.10
2023-03-17T04:57:36.860Z,60.20
2023-03-17T05:00:06.119Z,54.50
2023-03-17T05:02:33.093Z,56.10
2023-03-17T05:05:00.012Z,52.40
2023-03-17T05:07:26.853Z,52.10
2023-03-17T05:09:53.710Z,53.40
2023-03-17T05:12:20.686Z,53.90
2023-03-17T05:14:47.512Z,56.00
2023-03-17T05:17:14.688Z,53.10
2023-03-17T05:19:41.490Z,54.80
2023-03-17T05:22:08.427Z,53.40
2023-03-17T05:24:35.259Z,62.30
2023-03-17T05:27:02.057Z,65.40
2023-03-17T05:29:29.004Z,60.00
2023-03-17T05:31:55.891Z,64.90
2023-03-17T05:34:22.944Z,59.30
2023-03-17T05:36:50.602Z,56.30
2023-03-17T05:39:17.685Z,55.30
2023-03-17T05:41:44.570Z,60.30
2023-03-17T05:44:11.468Z,57.90
2023-03-17T05:46:38.287Z,57.40
2023-03-17T05:49:05.205Z,55.90
2023-03-17T05:51:32.166Z,53.70
2023-03-17T05:53:59.020Z,51.20
2023-03-17T05:56:33.445Z,53.10
2023-03-17T05:59:01.915Z,50.50
2023-03-17T06:01:29.710Z,52.50
2023-03-17T06:03:56.769Z,53.00
2023-03-17T06:06:24.764Z,60.10
2023-03-17T06:08:51.852Z,57.60
2023-03-17T06:11:21.276Z,50.10
2023-03-17T06:13:48.551Z,52.60
2023-03-17T06:16:15.871Z,49.10
2023-03-17T06:18:42.920Z,49.40
2023-03-17T06:21:09.780Z,46.30
2023-03-17T06:23:36.731Z,44.60
2023-03-17T06:26:05.286Z,43.70
2023-03-17T06:28:32.350Z,43.80
2023-03-17T06:30:59.356Z,42.10
2023-03-17T06:33:26.345Z,40.00
2023-03-17T06:35:53.510Z,41.20
2023-03-17T06:38:20.970Z,38.10
2023-03-17T06:40:48.935Z,38.40
2023-03-17T06:43:15.832Z,35.20
2023-03-17T06:45:42.735Z,35.80
2023-03-17T06:48:09.608Z,30.90
2023-03-17T06:54:02.332Z,36.30
2023-03-17T06:56:30.509Z,29.90
2023-03-17T06:58:58.452Z,31.10
2023-03-17T07:01:27.570Z,29.30
2023-03-17T07:03:54.798Z,28.70
2023-03-17T07:06:23.510Z,28.20
2023-03-17T07:08:51.106Z,26.10
2023-03-17T07:11:17.997Z,25.70
2023-03-17T07:13:45.403Z,25.30
2023-03-17T07:16:14.067Z,25.90
2023-03-17T07:18:40.962Z,24.30
2023-03-17T07:21:08.164Z,23.30
2023-03-17T07:23:35.303Z,23.40
2023-03-17T07:26:02.690Z,25.50
2023-03-17T07:28:29.752Z,25.00
2023-03-17T07:30:58.205Z,24.40
2023-03-17T07:33:25.422Z,23.50
2023-03-17T07:35:54.358Z,25.20
2023-03-17T07:38:22.091Z,23.60
2023-03-17T07:40:49.408Z,23.00
2023-03-17T07:43:17.060Z,24.10
2023-03-17T07:45:44.966Z,22.60
2023-03-17T07:48:11.881Z,21.80
2023-03-17T07:50:39.056Z,21.00
2023-03-17T07:53:06.366Z,20.50
2023-03-17T07:57:32.886Z,20.00
2023-03-17T07:59:59.969Z,18.70
2023-03-17T08:02:27.142Z,21.30
2023-03-17T08:04:54.137Z,16.60
2023-03-17T08:07:21.031Z,16.00
2023-03-17T08:09:48.383Z,16.30
2023-03-17T08:12:15.384Z,21.40
2023-03-17T08:14:42.457Z,17.30
2023-03-17T08:17:09.496Z,12.90
2023-03-17T08:19:36.558Z,18.20
2023-03-17T08:22:03.513Z,17.40
2023-03-17T08:24:30.433Z,19.30
2023-03-17T08:26:59.752Z,19.00
2023-03-17T08:29:29.252Z,12.60
2023-03-17T08:31:57.474Z,11.60
2023-03-17T08:34:24.511Z,26.20
2023-03-17T08:36:51.849Z,12.50
2023-03-17T08:39:19.673Z,16.50
2023-03-17T08:41:47.146Z,12.30
2023-03-17T08:44:14.906Z,13.90
2023-03-17T08:46:42.012Z,14.70
2023-03-17T08:49:10.650Z,12.90
2023-03-17T08:51:38.827Z,13.20
2023-03-17T08:54:07.017Z,12.00
2023-03-17T08:56:34.468Z,16.70
2023-03-17T08:59:01.396Z,15.70
2023-03-17T09:01:28.403Z,10.10
2023-03-17T09:03:56.165Z,14.40
2023-03-17T09:06:23.713Z,20.40
2023-03-17T09:08:55.666Z,10.30
2023-03-17T09:11:29.444Z,11.10
2023-03-17T09:13:56.629Z,8.10
2023-03-17T09:16:24.913Z,7.20
2023-03-17T09:18:52.142Z,7.20
2023-03-17T09:21:19.499Z,8.80
2023-03-17T09:23:47.103Z,5.40
2023-03-17T09:26:14.064Z,9.70
2023-03-17T09:28:40.975Z,19.70
2023-03-17T09:31:11.771Z,5.30
2023-03-17T09:33:39.924Z,5.50
2023-03-17T09:36:08.132Z,5.30
2023-03-17T09:38:36.244Z,6.30
2023-03-17T09:41:23.977Z,4.70
2023-03-17T09:44:18.137Z,5.10
2023-03-17T09:46:48.038Z,5.60
2023-03-17T09:49:25.329Z,5.00
2023-03-17T09:51:53.493Z,5.50
2023-03-17T09:54:23.084Z,5.10
2023-03-17T09:57:01.890Z,5.40
2023-03-17T09:59:40.698Z,5.20
2023-03-17T10:02:17.527Z,4.80
2023-03-17T10:04:47.174Z,11.40
2023-03-17T10:07:20.562Z,10.40
2023-03-17T10:10:01.041Z,4.60
2023-03-17T10:12:54.017Z,4.40
2023-03-17T10:15:28.049Z,4.40
2023-03-17T10:17:55.008Z,5.50
2023-03-17T10:20:36.561Z,5.80
2023-03-17T10:23:07.312Z,5.20
2023-03-17T10:25:36.605Z,5.80
2023-03-17T10:28:12.468Z,28.20
2023-03-17T10:30:40.052Z,6.40
2023-03-17T10:33:07.327Z,5.90
2023-03-17T10:35:36.746Z,5.80
2023-03-17T10:38:20.049Z,5.50
2023-03-17T10:41:09.987Z,6.50
2023-03-17T10:43:50.787Z,5.90
2023-03-17T10:46:25.962Z,5.10
2023-03-17T10:49:17.032Z,5.50
2023-03-17T10:51:46.772Z,5.50
2023-03-17T10:56:49.135Z,5.80
2023-03-17T10:59:44.333Z,5.80
2023-03-17T11:02:24.384Z,6.20
2023-03-17T11:04:55.886Z,6.00
2023-03-17T11:07:38.325Z,6.10
2023-03-17T11:10:24.826Z,5.20
2023-03-17T11:13:00.691Z,5.60
2023-03-17T11:15:37.252Z,5.50
2023-03-17T11:18:14.078Z,5.80
2023-03-17T11:20:47.064Z,5.70
2023-03-17T11:23:48.401Z,6.30
2023-03-17T11:26:46.630Z,6.20
2023-03-17T11:29:24.634Z,6.50
2023-03-17T11:32:12.151Z,7.00
2023-03-17T11:35:27.457Z,5.30
2023-03-17T11:38:24.861Z,5.30
2023-03-17T11:41:09.177Z,5.30
2023-03-17T11:43:59.695Z,5.30
2023-03-17T11:47:03.282Z,5.60
2023-03-17T11:49:38.993Z,5.80
2023-03-17T11:52:11.441Z,5.20
2023-03-17T11:54:47.594Z,5.70
2023-03-17T11:57:24.066Z,6.00
2023-03-17T12:00:04.214Z,5.90
2023-03-17T12:02:45.761Z,5.60
2023-03-17T12:05:38.602Z,6.00
2023-03-17T12:08:14.255Z,6.20
2023-03-17T12:10:49.643Z,6.90
2023-03-17T12:13:19.590Z,7.10
2023-03-17T12:18:52.944Z,6.10
2023-03-17T12:21:33.037Z,6.60
2023-03-17T12:24:05.968Z,6.10
2023-03-17T12:26:32.831Z,7.00
2023-03-17T12:29:07.135Z,7.10
2023-03-17T12:31:58.801Z,6.60
2023-03-17T12:34:42.075Z,6.20
2023-03-17T12:37:09.945Z,6.60
2023-03-17T12:39:38.097Z,6.50
2023-03-17T12:42:21.976Z,7.80
2023-03-17T12:45:27.745Z,5.80
2023-03-17T12:48:23.926Z,7.00
2023-03-17T12:50:50.888Z,6.60
2023-03-17T12:53:53.207Z,7.00
2023-03-17T12:56:32.316Z,7.20
2023-03-17T12:59:06.354Z,7.80
2023-03-17T13:01:39.066Z,8.10
2023-03-17T13:04:08.774Z,6.70
2023-03-17T13:07:14.677Z,7.00
2023-03-17T13:09:45.302Z,7.00
2023-03-17T13:12:37.140Z,7.60
2023-03-17T13:15:47.227Z,7.50
2023-03-17T13:18:14.088Z,7.20
2023-03-17T13:20:51.736Z,7.20
2023-03-17T13:23:23.900Z,6.90
2023-03-17T13:25:53.905Z,6.90
2023-03-17T13:28:42.052Z,6.00
2023-03-17T13:31:27.268Z,6.50
2023-03-17T13:33:57.775Z,6.50
2023-03-17T13:36:40.094Z,12.90
2023-03-17T13:39:29.656Z,14.30
2023-03-17T13:42:18.817Z,7.60
2023-03-17T13:45:09.526Z,57.60
2023-03-17T13:47:44.512Z,21.30
2023-03-17T13:50:31.197Z,31.30
2023-03-17T13:53:03.810Z,7.70
2023-03-17T13:55:37.273Z,11.20
2023-03-17T13:58:11.832Z,8.10
2023-03-17T14:00:42.571Z,8.90
2023-03-17T14:03:20.692Z,18.70
2023-03-17T14:05:50.935Z,9.40
2023-03-17T14:08:35.832Z,8.70
2023-03-17T14:11:09.022Z,39.80
2023-03-17T14:13:53.082Z,11.30
2023-03-17T14:16:30.419Z,9.50
2023-03-17T14:19:12.246Z,11.20
2023-03-17T14:21:39.109Z,10.50
2023-03-17T14:24:21.542Z,16.70
2023-03-17T14:26:50.631Z,75.20
2023-03-17T14:29:21.444Z,10.30
2023-03-17T14:32:02.545Z,19.60
2023-03-17T14:34:30.091Z,22.60
2023-03-17T14:37:04.851Z,17.50
2023-03-17T14:39:32.359Z,10.70
2023-03-17T14:42:05.252Z,11.60
2023-03-17T14:44:44.112Z,10.10
2023-03-17T14:47:32.717Z,12.60
2023-03-17T14:50:02.862Z,13.10
2023-03-17T14:52:33.102Z,31.80
2023-03-17T14:55:01.157Z,12.70
2023-03-17T14:57:33.163Z,13.00
2023-03-17T15:00:34.343Z,29.90
2023-03-17T15:03:05.531Z,11.40
2023-03-17T15:05:40.917Z,17.20
2023-03-17T15:08:36.538Z,13.10
2023-03-17T15:11:06.004Z,15.00
2023-03-17T15:13:36.716Z,16.00
2023-03-17T15:16:33.851Z,9.70
2023-03-17T15:19:17.369Z,11.00
2023-03-17T15:21:44.592Z,18.10
2023-03-17T15:24:52.105Z,15.00
2023-03-17T15:27:19.249Z,12.10
2023-03-17T15:29:47.562Z,12.60
2023-03-17T15:32:20.472Z,13.10
2023-03-17T15:34:48.868Z,14.10
2023-03-17T15:37:23.134Z,15.60
2023-03-17T15:39:51.581Z,14.70
2023-03-17T15:42:20.448Z,12.10
2023-03-17T15:44:47.595Z,14.90
2023-03-17T15:47:16.947Z,12.30
2023-03-17T15:49:45.052Z,14.40
2023-03-17T15:52:21.999Z,12.50
2023-03-17T15:54:49.748Z,12.00
2023-03-17T15:57:17.397Z,11.00
2023-03-17T15:59:45.168Z,14.70
2023-03-17T16:02:25.224Z,11.70
2023-03-17T16:04:52.670Z,13.40
2023-03-17T16:07:21.453Z,12.50
2023-03-17T16:09:49.031Z,13.00
2023-03-17T16:12:16.244Z,14.80
2023-03-17T16:14:43.225Z,11.20
2023-03-17T16:17:20.249Z,11.90
2023-03-17T16:19:48.171Z,11.50
2023-03-17T16:22:43.178Z,11.80
2023-03-17T16:25:30.979Z,12.20
2023-03-17T16:28:00.446Z,12.80
2023-03-17T16:30:33.107Z,12.30
2023-03-17T16:33:16.065Z,12.30
2023-03-17T16:35:43.752Z,11.60
2023-03-17T16:38:17.826Z,14.00
2023-03-17T16:40:52.010Z,27.00
2023-03-17T16:43:25.592Z,40.60
2023-03-17T16:45:55.719Z,22.70
2023-03-17T16:50:50.561Z,14.80
2023-03-17T16:53:17.848Z,14.00
2023-03-17T16:55:46.091Z,11.30
2023-03-17T16:58:31.590Z,10.40
2023-03-17T17:01:06.529Z,9.50
2023-03-17T17:03:33.708Z,10.00
2023-03-17T17:06:00.614Z,11.50
2023-03-17T17:08:27.636Z,10.70
2023-03-17T17:10:54.586Z,12.50
2023-03-17T17:13:21.671Z,14.40
2023-03-17T17:15:49.055Z,14.50
2023-03-17T17:18:20.752Z,15.10
2023-03-17T17:20:49.327Z,17.70
2023-03-17T17:23:22.214Z,18.00
2023-03-17T17:25:50.478Z,17.40
2023-03-17T17:28:19.545Z,17.30
2023-03-17T17:30:48.244Z,17.30
2023-03-17T17:33:17.125Z,17.40
2023-03-17T17:35:45.223Z,17.40
2023-03-17T17:38:26.844Z,19.20
2023-03-17T17:40:56.107Z,20.60
2023-03-17T17:43:24.806Z,22.00
2023-03-17T17:45:52.158Z,21.80
2023-03-17T17:48:22.831Z,26.30
2023-03-17T17:50:51.288Z,32.10
2023-03-17T17:53:18.780Z,34.50
2023-03-17T17:55:48.409Z,38.70
2023-03-17T17:58:18.111Z,42.10
2023-03-17T18:00:45.502Z,37.60
2023-03-17T18:03:12.645Z,31.70
2023-03-17T18:05:40.063Z,41.20
2023-03-17T18:08:07.080Z,53.80
2023-03-17T18:10:34.739Z,75.20
2023-03-17T18:13:04.521Z,137.40
2023-03-17T18:15:31.921Z,154.80
2023-03-17T18:17:58.935Z,81.20
2023-03-17T18:20:26.486Z,114.30
2023-03-17T18:22:54.375Z,128.10
2023-03-17T18:25:21.461Z,60.70
2023-03-17T18:27:48.744Z,61.70
2023-03-17T18:30:25.326Z,30.60
2023-03-17T18:33:02.657Z,25.30
2023-03-17T18:35:29.793Z,25.00
2023-03-17T18:37:59.532Z,23.10
2023-03-17T18:40:26.647Z,21.10
2023-03-17T18:42:54.119Z,27.90
2023-03-17T18:45:21.652Z,40.00
2023-03-17T18:47:48.617Z,42.50
2023-03-17T18:50:16.650Z,35.60
2023-03-17T18:52:45.381Z,45.60
2023-03-17T18:55:13.882Z,29.90
2023-03-17T18:57:44.321Z,19.70
2023-03-17T19:00:14.628Z,20.20
2023-03-17T19:05:10.748Z,16.90
2023-03-17T19:07:40.201Z,16.60
2023-03-17T19:10:08.842Z,16.10
2023-03-17T19:12:36.566Z,14.70
2023-03-17T19:15:04.514Z,17.10
2023-03-17T19:17:31.740Z,16.00
2023-03-17T19:19:58.983Z,15.40
2023-03-17T19:22:26.292Z,16.00
2023-03-17T19:24:53.656Z,15.80
2023-03-17T19:27:20.861Z,15.20
2023-03-17T19:29:47.854Z,14.30
2023-03-17T19:32:16.295Z,14.90
2023-03-17T19:34:43.286Z,12.90
2023-03-17T19:37:10.293Z,13.40
2023-03-17T19:39:38.135Z,13.10
2023-03-17T19:42:05.345Z,12.20
2023-03-17T19:44:32.509Z,12.90
2023-03-17T19:47:01.818Z,12.70
2023-03-17T19:49:28.873Z,12.00
2023-03-17T19:51:56.718Z,12.50
2023-03-17T19:54:23.696Z,11.10
2023-03-17T19:56:50.786Z,11.50
2023-03-17T19:59:19.821Z,11.50
2023-03-17T20:01:49.339Z,11.20
2023-03-17T20:04:22.052Z,11.50
2023-03-17T20:06:55.397Z,11.30
2023-03-17T20:09:24.977Z,11.30
2023-03-17T20:11:53.587Z,12.30
2023-03-17T20:14:21.102Z,10.70
2023-03-17T20:16:48.803Z,10.50
2023-03-17T20:19:16.947Z,10.90
2023-03-17T20:21:44.253Z,10.00
2023-03-17T20:24:12.927Z,9.50
2023-03-17T20:26:41.561Z,10.20
2023-03-17T20:29:08.635Z,9.90
2023-03-17T20:31:36.167Z,9.20
2023-03-17T20:34:03.547Z,9.40
2023-03-17T20:36:30.525Z,10.30
2023-03-17T20:38:58.741Z,12.40
2023-03-17T20:41:25.960Z,11.60
2023-03-17T20:43:53.462Z,13.60
2023-03-17T20:46:26.716Z,9.80
2023-03-17T20:48:59.057Z,10.20
2023-03-17T20:51:26.797Z,10.20
2023-03-17T20:53:55.353Z,14.90
2023-03-17T20:56:24.498Z,9.60
2023-03-17T20:58:53.425Z,9.10
2023-03-17T21:01:21.622Z,10.40
2023-03-17T21:03:49.858Z,10.10
2023-03-17T21:06:17.894Z,9.70
2023-03-17T21:08:46.273Z,10.40
2023-03-17T21:11:21.102Z,9.60
2023-03-17T21:13:48.037Z,9.60
2023-03-17T21:16:21.446Z,11.00
2023-03-17T21:18:48.986Z,10.60
2023-03-17T21:21:16.864Z,11.60
2023-03-17T21:23:44.294Z,12.10
2023-03-17T21:26:12.413Z,10.10
2023-03-17T21:28:41.526Z,10.70
2023-03-17T21:31:10.661Z,12.60
2023-03-17T21:33:38.246Z,11.20
2023-03-17T21:36:06.075Z,10.90
2023-03-17T21:38:33.188Z,11.20
2023-03-17T21:41:22.491Z,10.30
2023-03-17T21:43:49.538Z,10.50
2023-03-17T21:46:16.751Z,10.70
2023-03-17T21:48:44.227Z,10.10
2023-03-17T21:51:11.674Z,10.90
2023-03-17T21:53:39.412Z,9.30
2023-03-17T21:56:06.765Z,9.90
2023-03-17T21:58:35.311Z,9.80
2023-03-17T22:01:03.385Z,9.90
2023-03-17T22:03:32.371Z,9.80
2023-03-17T22:05:59.887Z,9.30
2023-03-17T22:08:26.958Z,9.60
2023-03-17T22:10:54.084Z,8.80
2023-03-17T22:13:21.226Z,9.40
2023-03-17T22:15:48.854Z,9.20
2023-03-17T22:18:16.091Z,9.70
2023-03-17T22:20:45.054Z,9.00
2023-03-17T22:23:12.086Z,9.50
2023-03-17T22:25:39.102Z,9.00
2023-03-17T22:28:06.641Z,8.80
2023-03-17T22:30:33.955Z,8.20
2023-03-17T22:33:01.245Z,8.00
2023-03-17T22:35:28.576Z,8.00
2023-03-17T22:37:55.470Z,8.90
2023-03-17T22:40:22.722Z,8.50
2023-03-17T22:42:49.626Z,9.10
2023-03-17T22:45:16.712Z,8.60
2023-03-17T22:47:43.799Z,10.00
2023-03-17T22:50:11.941Z,9.00
2023-03-17T22:52:38.859Z,9.50
2023-03-17T22:55:07.872Z,9.40
2023-03-17T22:57:35.271Z,9.00
2023-03-17T23:00:05.649Z,9.20
2023-03-17T23:02:32.625Z,8.80
2023-03-17T23:04:59.489Z,10.20
2023-03-17T23:07:27.696Z,8.60
2023-03-17T23:09:55.223Z,9.10
2023-03-17T23:12:24.633Z,8.10
2023-03-17T23:14:51.678Z,8.30
2023-03-17T23:17:18.886Z,7.30
2023-03-17T23:19:46.449Z,7.80
2023-03-17T23:22:13.279Z,8.60
2023-03-17T23:24:40.279Z,8.80
2023-03-17T23:27:07.194Z,8.30
2023-03-17T23:29:34.153Z,8.40
2023-03-17T23:32:01.398Z,7.30
2023-03-17T23:34:28.599Z,7.00
2023-03-17T23:36:55.570Z,7.40
2023-03-17T23:39:22.395Z,8.50
2023-03-17T23:41:49.603Z,7.90
2023-03-17T23:44:16.642Z,7.10
2023-03-17T23:46:45.284Z,7.50
2023-03-17T23:49:12.371Z,7.10
2023-03-17T23:51:39.320Z,7.90
2023-03-17T23:54:07.796Z,7.10
2023-03-17T23:56:35.032Z,7.40
2023-03-17T23:59:04.003Z,6.70
